createdAt,value
2022-10-10T00:00:26.018Z,71.55
2022-10-10T00:01:48.957Z,71.67
2022-10-10T00:02:52.102Z,71.60
2022-10-10T00:03:56.000Z,71.52
2022-10-10T00:04:59.018Z,71.45
2022-10-10T00:06:02.127Z,71.47
2022-10-10T00:07:05.284Z,71.44
2022-10-10T00:08:08.704Z,71.42
2022-10-10T00:09:11.853Z,71.40
2022-10-10T00:10:14.835Z,71.43
2022-10-10T00:11:20.164Z,71.46
2022-10-10T00:12:23.188Z,71.48
2022-10-10T00:13:26.247Z,71.42
2022-10-10T00:14:32.489Z,71.31
2022-10-10T00:15:35.680Z,71.30
2022-10-10T00:16:38.678Z,71.24
2022-10-10T00:17:43.774Z,71.18
2022-10-10T00:18:46.782Z,71.18
2022-10-10T00:19:49.834Z,71.11
2022-10-10T00:20:53.581Z,71.19
2022-10-10T00:21:56.522Z,71.32
2022-10-10T00:22:59.514Z,71.42
2022-10-10T00:24:02.642Z,71.34
2022-10-10T00:25:07.572Z,71.33
2022-10-10T00:26:14.924Z,71.38
2022-10-10T00:27:21.493Z,71.41
2022-10-10T00:28:24.875Z,71.31
2022-10-10T00:29:28.123Z,71.21
2022-10-10T00:30:31.831Z,71.18
2022-10-10T00:31:34.715Z,71.13
2022-10-10T00:32:37.757Z,71.18
2022-10-10T00:33:40.663Z,71.27
2022-10-10T00:34:43.863Z,71.40
2022-10-10T00:35:46.860Z,71.50
2022-10-10T00:36:50.252Z,71.54
2022-10-10T00:37:53.426Z,71.57
2022-10-10T00:38:56.384Z,71.50
2022-10-10T00:39:59.417Z,71.44
2022-10-10T00:41:02.849Z,71.45
2022-10-10T00:42:05.885Z,71.54
2022-10-10T00:43:10.407Z,71.63
2022-10-10T00:44:15.595Z,71.69
2022-10-10T00:45:39.311Z,71.57
2022-10-10T00:46:42.515Z,71.64
2022-10-10T00:47:45.892Z,71.53
2022-10-10T00:48:48.996Z,71.51
2022-10-10T00:49:51.979Z,71.53
2022-10-10T00:51:05.126Z,71.52
2022-10-10T00:52:10.978Z,71.96
2022-10-10T00:53:19.520Z,71.94
2022-10-10T00:54:24.579Z,72.16
2022-10-10T00:55:28.003Z,72.34
2022-10-10T00:56:41.733Z,72.44
2022-10-10T00:57:45.139Z,72.52
2022-10-10T00:58:52.890Z,72.43
2022-10-10T00:59:56.509Z,72.38
2022-10-10T01:00:59.603Z,72.19
2022-10-10T01:02:02.847Z,72.17
2022-10-10T01:03:06.081Z,72.18
2022-10-10T01:04:38.693Z,72.15
2022-10-10T01:05:46.057Z,72.36
2022-10-10T01:06:48.980Z,72.19
2022-10-10T01:07:52.470Z,72.21
2022-10-10T01:08:56.743Z,72.44
2022-10-10T01:10:05.231Z,72.61
2022-10-10T01:11:17.355Z,72.63
2022-10-10T01:12:23.110Z,72.66
2022-10-10T01:13:36.326Z,72.65
2022-10-10T01:14:54.340Z,72.78
2022-10-10T01:16:34.637Z,72.84
2022-10-10T01:17:46.755Z,73.06
2022-10-10T01:18:55.715Z,72.92
2022-10-10T01:20:55.838Z,72.84
2022-10-10T01:22:35.553Z,73.25
2022-10-10T01:23:54.454Z,73.19
2022-10-10T01:25:19.092Z,73.06
2022-10-10T01:26:31.353Z,73.02
2022-10-10T01:27:51.496Z,72.94
2022-10-10T01:29:00.173Z,72.97
2022-10-10T01:30:09.888Z,72.88
2022-10-10T01:31:15.920Z,72.79
2022-10-10T01:32:44.182Z,72.82
2022-10-10T01:33:55.076Z,72.92
2022-10-10T01:35:17.876Z,72.38
2022-10-10T01:36:58.576Z,72.16
2022-10-10T01:38:22.628Z,72.19
2022-10-10T01:39:49.792Z,72.51
2022-10-10T01:41:09.287Z,72.77
2022-10-10T01:42:23.470Z,72.80
2022-10-10T01:43:26.808Z,72.46
2022-10-10T01:44:29.750Z,72.57
2022-10-10T01:45:32.854Z,72.65
2022-10-10T01:46:35.877Z,72.72
2022-10-10T01:47:39.239Z,72.73
2022-10-10T01:48:45.080Z,72.72
2022-10-10T01:49:51.492Z,72.74
2022-10-10T01:51:26.204Z,72.72
2022-10-10T01:52:56.244Z,72.97
2022-10-10T01:54:21.363Z,73.29
2022-10-10T01:55:50.180Z,73.29
2022-10-10T01:57:02.301Z,73.14
2022-10-10T01:58:26.875Z,73.10
2022-10-10T02:00:03.628Z,73.17
2022-10-10T02:01:18.494Z,73.14
2022-10-10T02:02:54.224Z,73.00
2022-10-10T02:04:30.041Z,73.15
2022-10-10T02:05:54.970Z,73.25
2022-10-10T02:07:14.999Z,73.12
2022-10-10T02:08:36.010Z,73.08
2022-10-10T02:09:42.872Z,73.14
2022-10-10T02:10:53.194Z,73.02
2022-10-10T02:11:59.715Z,73.09
2022-10-10T02:13:05.210Z,73.03
2022-10-10T02:14:31.797Z,73.04
2022-10-10T02:15:43.512Z,73.31
2022-10-10T02:16:50.079Z,73.03
2022-10-10T02:17:56.497Z,72.91
2022-10-10T02:19:00.225Z,72.73
2022-10-10T02:20:07.923Z,72.78
2022-10-10T02:21:13.013Z,72.71
2022-10-10T02:22:17.252Z,72.72
2022-10-10T02:23:22.286Z,73.06
2022-10-10T02:24:25.466Z,73.30
2022-10-10T02:25:32.989Z,73.42
2022-10-10T02:26:37.335Z,73.63
2022-10-10T02:27:48.552Z,73.60
2022-10-10T02:29:01.121Z,73.70
2022-10-10T02:30:05.726Z,73.69
2022-10-10T02:32:54.922Z,73.91
2022-10-10T02:34:06.425Z,73.79
2022-10-10T02:35:24.561Z,73.72
2022-10-10T02:36:28.976Z,73.53
2022-10-10T02:37:33.174Z,73.16
2022-10-10T02:38:36.705Z,73.40
2022-10-10T02:39:53.847Z,73.59
2022-10-10T02:41:03.959Z,73.37
2022-10-10T02:42:08.792Z,73.29
2022-10-10T02:43:14.389Z,73.37
2022-10-10T02:44:18.166Z,73.58
2022-10-10T02:45:22.335Z,73.70
2022-10-10T02:46:25.353Z,73.66
2022-10-10T02:47:28.447Z,73.61
2022-10-10T02:48:31.453Z,73.91
2022-10-10T02:49:35.295Z,74.09
2022-10-10T02:50:38.587Z,74.18
2022-10-10T02:51:41.598Z,74.23
2022-10-10T02:52:44.491Z,74.06
2022-10-10T02:53:47.546Z,74.03
2022-10-10T02:54:50.509Z,74.09
2022-10-10T02:55:53.617Z,74.02
2022-10-10T02:56:56.695Z,74.07
2022-10-10T02:57:59.607Z,74.22
2022-10-10T02:59:02.517Z,74.27
2022-10-10T03:00:06.619Z,74.27
2022-10-10T03:01:10.678Z,74.24
2022-10-10T03:02:14.696Z,74.12
2022-10-10T03:03:17.696Z,74.00
2022-10-10T03:04:20.635Z,74.04
2022-10-10T03:05:23.784Z,74.15
2022-10-10T03:06:26.879Z,73.96
2022-10-10T03:07:29.803Z,73.72
2022-10-10T03:08:32.911Z,73.80
2022-10-10T03:09:35.945Z,74.12
2022-10-10T03:10:39.120Z,74.30
2022-10-10T03:11:42.368Z,74.31
2022-10-10T03:12:45.303Z,74.21
2022-10-10T03:13:48.247Z,73.89
2022-10-10T03:14:51.263Z,74.06
2022-10-10T03:15:54.656Z,74.32
2022-10-10T03:16:58.025Z,74.11
2022-10-10T03:18:01.119Z,74.06
2022-10-10T03:19:04.307Z,74.19
2022-10-10T03:20:08.362Z,74.25
2022-10-10T03:21:11.618Z,74.41
2022-10-10T03:22:14.619Z,74.62
2022-10-10T03:23:17.592Z,74.72
2022-10-10T03:24:20.884Z,74.67
2022-10-10T03:25:23.816Z,74.61
2022-10-10T03:26:27.210Z,74.59
2022-10-10T03:27:30.330Z,74.59
2022-10-10T03:28:33.435Z,74.63
2022-10-10T03:29:36.539Z,74.64
2022-10-10T03:30:40.086Z,74.52
2022-10-10T03:31:43.078Z,74.49
2022-10-10T03:32:46.275Z,74.55
2022-10-10T03:33:49.341Z,74.54
2022-10-10T03:34:52.241Z,74.39
2022-10-10T03:35:55.365Z,74.30
2022-10-10T03:36:58.495Z,74.34
2022-10-10T03:38:02.173Z,74.32
2022-10-10T03:39:05.450Z,74.35
2022-10-10T03:40:09.248Z,74.37
2022-10-10T03:41:12.382Z,74.36
2022-10-10T03:42:15.269Z,74.35
2022-10-10T03:43:18.251Z,74.28
2022-10-10T03:44:21.133Z,74.27
2022-10-10T03:45:24.628Z,74.24
2022-10-10T03:46:27.941Z,74.39
2022-10-10T03:47:31.123Z,74.38
2022-10-10T03:48:34.263Z,74.33
2022-10-10T03:49:37.212Z,74.37
2022-10-10T03:50:40.417Z,74.35
2022-10-10T03:51:43.476Z,74.53
2022-10-10T03:52:46.468Z,74.45
2022-10-10T03:53:49.649Z,74.49
2022-10-10T03:54:52.647Z,74.51
2022-10-10T03:55:55.738Z,74.51
2022-10-10T03:56:58.746Z,74.59
2022-10-10T03:58:01.943Z,74.60
2022-10-10T03:59:06.284Z,74.58
2022-10-10T04:00:29.284Z,74.77
2022-10-10T04:01:33.844Z,74.75
2022-10-10T04:02:37.047Z,74.84
2022-10-10T04:03:40.855Z,74.82
2022-10-10T04:04:44.307Z,74.74
2022-10-10T04:05:47.292Z,74.70
2022-10-10T04:06:50.216Z,74.80
2022-10-10T04:07:53.234Z,74.80
2022-10-10T04:08:56.421Z,74.84
2022-10-10T04:09:59.650Z,74.97
2022-10-10T04:11:02.662Z,74.91
2022-10-10T04:12:05.682Z,74.90
2022-10-10T04:13:08.837Z,74.90
2022-10-10T04:14:11.878Z,74.91
2022-10-10T04:15:14.954Z,74.85
2022-10-10T04:16:17.857Z,74.78
2022-10-10T04:17:20.920Z,74.81
2022-10-10T04:18:24.480Z,74.92
2022-10-10T04:19:27.484Z,74.94
2022-10-10T04:20:30.577Z,74.92
2022-10-10T04:21:34.038Z,74.92
2022-10-10T04:22:37.118Z,75.00
2022-10-10T04:23:41.341Z,75.02
2022-10-10T04:24:44.355Z,75.02
2022-10-10T04:25:51.411Z,75.02
2022-10-10T04:26:54.439Z,75.14
2022-10-10T04:28:01.031Z,75.09
2022-10-10T04:29:04.643Z,75.17
2022-10-10T04:30:08.061Z,75.11
2022-10-10T04:31:11.759Z,75.11
2022-10-10T04:32:14.708Z,75.10
2022-10-10T04:33:17.862Z,75.22
2022-10-10T04:34:20.860Z,75.20
2022-10-10T04:35:24.076Z,75.11
2022-10-10T04:36:27.207Z,75.06
2022-10-10T04:37:30.250Z,75.08
2022-10-10T04:38:33.358Z,75.18
2022-10-10T04:39:36.321Z,75.16
2022-10-10T04:40:39.354Z,75.13
2022-10-10T04:41:43.147Z,75.12
2022-10-10T04:42:46.069Z,75.15
2022-10-10T04:43:49.101Z,75.16
2022-10-10T04:44:52.028Z,75.18
2022-10-10T04:45:57.563Z,75.13
2022-10-10T04:47:00.849Z,75.19
2022-10-10T04:48:03.878Z,75.29
2022-10-10T04:49:06.841Z,75.29
2022-10-10T04:50:10.009Z,75.29
2022-10-10T04:51:13.121Z,75.28
2022-10-10T04:52:16.336Z,75.23
2022-10-10T04:53:19.384Z,75.22
2022-10-10T04:54:22.501Z,75.22
2022-10-10T04:55:25.480Z,75.22
2022-10-10T04:56:28.483Z,75.29
2022-10-10T04:57:31.664Z,75.15
2022-10-10T04:58:34.750Z,75.01
2022-10-10T04:59:37.740Z,75.01
2022-10-10T05:00:41.321Z,75.11
2022-10-10T05:01:44.498Z,75.45
2022-10-10T05:02:47.800Z,75.37
2022-10-10T05:03:50.831Z,75.51
2022-10-10T05:04:53.736Z,75.70
2022-10-10T05:05:56.680Z,75.97
2022-10-10T05:06:59.944Z,75.98
2022-10-10T05:08:03.124Z,76.02
2022-10-10T05:09:06.074Z,76.05
2022-10-10T05:10:09.781Z,76.11
2022-10-10T05:11:12.685Z,76.17
2022-10-10T05:12:15.863Z,76.19
2022-10-10T05:13:19.057Z,76.22
2022-10-10T05:14:21.985Z,76.44
2022-10-10T05:15:24.982Z,76.42
2022-10-10T05:16:27.986Z,76.37
2022-10-10T05:17:31.059Z,76.33
2022-10-10T05:18:37.426Z,76.38
2022-10-10T05:19:40.507Z,76.45
2022-10-10T05:20:47.556Z,76.47
2022-10-10T05:21:50.478Z,76.63
2022-10-10T05:22:53.997Z,76.56
2022-10-10T05:23:57.204Z,76.51
2022-10-10T05:25:00.496Z,76.41
2022-10-10T05:26:04.553Z,76.42
2022-10-10T05:27:07.571Z,76.95
2022-10-10T05:28:11.151Z,76.86
2022-10-10T05:29:14.543Z,76.64
2022-10-10T05:30:17.645Z,76.78
2022-10-10T05:31:20.804Z,76.77
2022-10-10T05:32:23.988Z,76.94
2022-10-10T05:33:27.086Z,76.94
2022-10-10T05:34:30.148Z,76.82
2022-10-10T05:35:33.481Z,76.94
2022-10-10T05:36:36.522Z,76.96
2022-10-10T05:37:39.496Z,77.00
2022-10-10T05:38:42.803Z,77.09
2022-10-10T05:39:46.161Z,77.28
2022-10-10T05:40:49.131Z,77.21
2022-10-10T05:41:52.223Z,77.21
2022-10-10T05:42:55.226Z,77.12
2022-10-10T05:43:58.298Z,77.17
2022-10-10T05:45:01.360Z,77.41
2022-10-10T05:46:05.023Z,77.38
2022-10-10T05:47:08.445Z,77.21
2022-10-10T05:48:11.343Z,77.04
2022-10-10T05:49:14.507Z,76.96
2022-10-10T05:50:41.787Z,77.09
2022-10-10T05:51:44.728Z,76.84
2022-10-10T05:52:47.943Z,76.66
2022-10-10T05:53:51.065Z,76.61
2022-10-10T05:54:54.123Z,76.50
2022-10-10T05:55:57.549Z,76.42
2022-10-10T05:57:00.667Z,76.41
2022-10-10T05:58:03.934Z,76.42
2022-10-10T05:59:06.967Z,76.40
2022-10-10T06:00:10.514Z,76.37
2022-10-10T06:01:13.825Z,76.28
2022-10-10T06:02:16.884Z,76.11
2022-10-10T06:03:20.104Z,75.81
2022-10-10T06:04:23.543Z,75.86
2022-10-10T06:05:26.791Z,76.07
2022-10-10T06:06:30.236Z,75.94
2022-10-10T06:07:52.330Z,76.20
2022-10-10T06:08:56.420Z,76.07
2022-10-10T06:09:59.361Z,76.04
2022-10-10T06:11:11.357Z,76.02
2022-10-10T06:12:15.038Z,76.13
2022-10-10T06:13:24.044Z,76.05
2022-10-10T06:14:27.674Z,75.91
2022-10-10T06:15:30.999Z,75.86
2022-10-10T06:16:35.142Z,75.95
2022-10-10T06:17:38.260Z,75.92
2022-10-10T06:18:41.247Z,75.86
2022-10-10T06:19:44.620Z,75.70
2022-10-10T06:20:47.609Z,75.63
2022-10-10T06:21:50.607Z,75.63
2022-10-10T06:22:53.838Z,75.59
2022-10-10T06:23:57.236Z,75.65
2022-10-10T06:25:00.301Z,75.61
2022-10-10T06:26:04.385Z,75.41
2022-10-10T06:27:07.506Z,75.07
2022-10-10T06:28:11.233Z,74.42
2022-10-10T06:29:14.366Z,74.12
2022-10-10T06:30:17.352Z,73.64
2022-10-10T06:31:20.486Z,73.46
2022-10-10T06:32:23.462Z,73.46
2022-10-10T06:33:27.171Z,73.40
2022-10-10T06:34:30.177Z,73.23
2022-10-10T06:35:33.192Z,73.34
2022-10-10T06:36:36.175Z,73.40
2022-10-10T06:37:39.404Z,73.46
2022-10-10T06:38:45.225Z,73.56
2022-10-10T06:39:48.420Z,73.42
2022-10-10T06:40:51.342Z,73.39
2022-10-10T06:41:54.402Z,73.41
2022-10-10T06:42:57.349Z,73.37
2022-10-10T06:44:00.445Z,73.22
2022-10-10T06:45:03.961Z,73.09
2022-10-10T06:46:07.789Z,73.15
2022-10-10T06:47:12.829Z,73.13
2022-10-10T06:48:15.908Z,72.95
2022-10-10T06:49:19.148Z,72.96
2022-10-10T06:50:22.419Z,72.97
2022-10-10T06:51:26.040Z,72.72
2022-10-10T06:52:29.070Z,72.68
2022-10-10T06:53:32.721Z,72.63
2022-10-10T06:54:36.609Z,72.50
2022-10-10T06:55:47.014Z,72.09
2022-10-10T06:56:50.030Z,71.63
2022-10-10T06:57:53.848Z,71.48
2022-10-10T06:58:57.068Z,71.42
2022-10-10T07:00:00.161Z,71.39
2022-10-10T07:01:04.717Z,71.57
2022-10-10T07:02:07.756Z,71.21
2022-10-10T07:03:12.763Z,71.40
2022-10-10T07:04:15.798Z,70.40
2022-10-10T07:05:19.134Z,70.48
2022-10-10T07:06:22.478Z,70.71
2022-10-10T07:07:25.687Z,70.25
2022-10-10T07:08:29.777Z,70.04
2022-10-10T07:09:32.829Z,70.12
2022-10-10T07:10:36.848Z,70.01
2022-10-10T07:11:45.255Z,69.78
2022-10-10T07:12:48.600Z,69.24
2022-10-10T07:13:53.737Z,68.93
2022-10-10T07:14:56.836Z,68.28
2022-10-10T07:16:00.369Z,68.57
2022-10-10T07:17:03.471Z,68.13
2022-10-10T07:18:06.861Z,68.01
2022-10-10T07:19:12.999Z,68.03
2022-10-10T07:20:16.187Z,68.13
2022-10-10T07:21:19.684Z,67.84
2022-10-10T07:22:22.689Z,68.32
2022-10-10T07:23:26.411Z,68.17
2022-10-10T07:24:29.317Z,68.15
2022-10-10T07:25:32.507Z,68.28
2022-10-10T07:26:38.317Z,68.61
2022-10-10T07:27:41.599Z,68.22
2022-10-10T07:28:45.215Z,68.16
2022-10-10T07:29:48.304Z,68.23
2022-10-10T07:30:51.323Z,68.21
2022-10-10T07:31:54.313Z,67.89
2022-10-10T07:32:57.339Z,68.09
2022-10-10T07:34:00.332Z,67.93
2022-10-10T07:35:03.560Z,67.90
2022-10-10T07:36:07.704Z,67.78
2022-10-10T07:37:10.896Z,67.87
2022-10-10T07:38:14.061Z,67.82
2022-10-10T07:39:21.433Z,67.79
2022-10-10T07:40:24.833Z,67.56
2022-10-10T07:41:27.886Z,67.75
2022-10-10T07:42:30.985Z,67.87
2022-10-10T07:43:34.034Z,67.96
2022-10-10T07:44:37.019Z,67.77
2022-10-10T07:45:39.985Z,67.84
2022-10-10T07:46:43.227Z,67.63
2022-10-10T07:47:46.520Z,67.23
2022-10-10T07:48:49.876Z,66.87
2022-10-10T07:49:53.097Z,67.01
2022-10-10T07:50:56.035Z,66.85
2022-10-10T07:52:01.461Z,66.94
2022-10-10T07:53:06.197Z,66.84
2022-10-10T07:54:10.086Z,67.13
2022-10-10T07:55:13.109Z,66.98
2022-10-10T07:56:35.069Z,67.09
2022-10-10T07:57:38.257Z,66.80
2022-10-10T07:58:41.384Z,66.82
2022-10-10T07:59:45.813Z,66.83
2022-10-10T08:00:48.937Z,66.94
2022-10-10T08:01:52.127Z,66.78
2022-10-10T08:02:55.350Z,66.99
2022-10-10T08:03:58.965Z,67.08
2022-10-10T08:05:02.023Z,66.69
2022-10-10T08:06:07.634Z,66.78
2022-10-10T08:07:10.692Z,66.39
2022-10-10T08:08:13.666Z,66.07
2022-10-10T08:09:17.055Z,66.03
2022-10-10T08:10:20.749Z,66.11
2022-10-10T08:11:23.825Z,65.70
2022-10-10T08:12:26.917Z,65.79
2022-10-10T08:13:30.203Z,65.79
2022-10-10T08:14:33.347Z,65.47
2022-10-10T08:15:39.554Z,65.20
2022-10-10T08:16:42.581Z,64.86
2022-10-10T08:17:45.660Z,64.93
2022-10-10T08:18:48.999Z,65.20
2022-10-10T08:19:52.138Z,64.74
2022-10-10T08:20:59.728Z,64.54
2022-10-10T08:22:02.855Z,64.69
2022-10-10T08:23:05.846Z,64.35
2022-10-10T08:24:08.913Z,64.32
2022-10-10T08:25:12.104Z,64.50
2022-10-10T08:26:17.296Z,64.59
2022-10-10T08:27:20.992Z,64.20
2022-10-10T08:28:24.075Z,63.82
2022-10-10T08:29:27.239Z,64.03
2022-10-10T08:30:30.403Z,64.27
2022-10-10T08:31:33.322Z,64.20
2022-10-10T08:32:36.514Z,64.36
2022-10-10T08:33:42.430Z,64.39
2022-10-10T08:34:45.667Z,64.42
2022-10-10T08:35:49.168Z,64.78
2022-10-10T08:36:52.234Z,64.66
2022-10-10T08:37:55.264Z,64.58
2022-10-10T08:39:00.978Z,64.53
2022-10-10T08:40:04.724Z,64.40
2022-10-10T08:41:35.260Z,64.46
2022-10-10T08:42:47.850Z,64.44
2022-10-10T08:43:55.509Z,64.65
2022-10-10T08:45:02.848Z,64.66
2022-10-10T08:46:30.776Z,64.83
2022-10-10T08:47:47.188Z,64.63
2022-10-10T08:48:52.550Z,64.41
2022-10-10T08:50:00.447Z,64.32
2022-10-10T08:51:09.677Z,64.01
2022-10-10T08:52:28.068Z,64.09
2022-10-10T08:53:48.945Z,63.96
2022-10-10T08:54:58.131Z,63.88
2022-10-10T08:56:05.067Z,63.74
2022-10-10T08:57:22.599Z,63.85
2022-10-10T08:58:33.929Z,63.86
2022-10-10T08:59:40.789Z,63.62
2022-10-10T09:00:49.399Z,62.80
2022-10-10T09:02:20.116Z,62.81
2022-10-10T09:03:30.521Z,62.48
2022-10-10T09:04:34.247Z,62.47
2022-10-10T09:05:48.278Z,63.01
2022-10-10T09:07:12.277Z,63.01
2022-10-10T09:08:39.496Z,62.46
2022-10-10T09:10:03.464Z,61.93
2022-10-10T09:11:35.684Z,61.74
2022-10-10T09:13:07.892Z,61.90
2022-10-10T09:14:26.109Z,61.73
2022-10-10T09:15:55.823Z,61.10
2022-10-10T09:17:14.217Z,61.13
2022-10-10T09:18:35.567Z,61.17
2022-10-10T09:19:53.279Z,61.11
2022-10-10T09:21:05.287Z,61.04
2022-10-10T09:22:16.654Z,60.41
2022-10-10T09:23:30.402Z,60.29
2022-10-10T09:24:43.793Z,60.24
2022-10-10T09:25:56.345Z,59.98
2022-10-10T09:27:04.773Z,59.87
2022-10-10T09:28:25.249Z,59.61
2022-10-10T09:29:35.238Z,59.89
2022-10-10T09:30:44.382Z,60.12
2022-10-10T09:31:52.391Z,59.98
2022-10-10T09:33:30.570Z,59.41
2022-10-10T09:34:43.637Z,58.60
2022-10-10T09:35:48.528Z,58.95
2022-10-10T09:36:54.179Z,59.71
2022-10-10T09:38:30.182Z,60.63
2022-10-10T09:39:37.252Z,60.85
2022-10-10T09:40:48.419Z,61.62
2022-10-10T09:41:51.380Z,62.01
2022-10-10T09:42:56.213Z,62.05
2022-10-10T09:44:02.576Z,62.03
2022-10-10T09:45:27.466Z,62.57
2022-10-10T09:46:30.705Z,62.64
2022-10-10T09:47:33.662Z,62.14
2022-10-10T09:48:39.196Z,61.22
2022-10-10T09:49:43.908Z,60.85
2022-10-10T09:50:47.015Z,60.40
2022-10-10T09:51:50.583Z,60.18
2022-10-10T09:52:53.882Z,59.92
2022-10-10T09:53:56.928Z,59.95
2022-10-10T09:55:06.738Z,58.64
2022-10-10T09:56:18.488Z,57.89
2022-10-10T09:57:26.133Z,57.86
2022-10-10T09:58:42.597Z,58.15
2022-10-10T09:59:46.660Z,58.77
2022-10-10T10:00:50.478Z,58.28
2022-10-10T10:02:03.967Z,59.17
2022-10-10T10:03:16.466Z,59.09
2022-10-10T10:04:28.215Z,59.87
2022-10-10T10:05:33.410Z,59.52
2022-10-10T10:06:37.681Z,59.12
2022-10-10T10:07:48.326Z,59.44
2022-10-10T10:08:53.061Z,59.20
2022-10-10T10:10:02.198Z,59.74
2022-10-10T10:11:18.866Z,60.12
2022-10-10T10:12:48.165Z,59.67
2022-10-10T10:13:55.734Z,59.45
2022-10-10T10:15:16.987Z,58.49
2022-10-10T10:16:19.993Z,57.78
2022-10-10T10:17:24.571Z,58.36
2022-10-10T10:18:29.502Z,57.81
2022-10-10T10:19:41.651Z,58.35
2022-10-10T10:20:48.339Z,57.87
2022-10-10T10:21:52.609Z,57.18
2022-10-10T10:22:56.349Z,58.06
2022-10-10T10:24:21.492Z,58.89
2022-10-10T10:25:38.554Z,56.97
2022-10-10T10:26:41.702Z,56.66
2022-10-10T10:27:44.618Z,56.76
2022-10-10T10:28:49.505Z,56.67
2022-10-10T10:29:55.360Z,56.92
2022-10-10T10:30:59.347Z,57.00
2022-10-10T10:32:18.047Z,57.42
2022-10-10T10:33:42.644Z,57.46
2022-10-10T10:35:04.113Z,57.31
2022-10-10T10:36:51.428Z,57.60
2022-10-10T10:38:17.283Z,56.97
2022-10-10T10:39:35.462Z,56.32
2022-10-10T10:40:42.959Z,56.65
2022-10-10T10:42:10.841Z,56.48
2022-10-10T10:43:37.968Z,55.82
2022-10-10T10:44:51.517Z,56.10
2022-10-10T10:46:22.261Z,56.03
2022-10-10T10:47:48.191Z,55.46
2022-10-10T10:49:18.755Z,56.32
2022-10-10T10:50:27.831Z,55.34
2022-10-10T10:51:55.536Z,55.55
2022-10-10T10:53:30.657Z,54.52
2022-10-10T10:55:11.127Z,54.33
2022-10-10T10:56:23.834Z,54.43
2022-10-10T10:57:39.341Z,54.66
2022-10-10T10:59:41.797Z,54.73
2022-10-10T11:01:22.598Z,53.70
2022-10-10T11:02:59.703Z,54.28
2022-10-10T11:05:21.323Z,55.63
2022-10-10T11:05:58.701Z,56.30
2022-10-10T11:07:34.376Z,55.35
2022-10-10T11:08:56.958Z,55.69
2022-10-10T11:10:30.293Z,54.65
2022-10-10T11:11:33.750Z,54.65
2022-10-10T11:12:55.442Z,54.82
2022-10-10T11:14:23.250Z,54.05
2022-10-10T11:15:37.559Z,54.37
2022-10-10T11:16:53.426Z,54.20
2022-10-10T11:18:08.750Z,52.56
2022-10-10T11:19:11.870Z,52.27
2022-10-10T11:20:32.598Z,52.80
2022-10-10T11:21:42.830Z,52.22
2022-10-10T11:22:52.821Z,50.62
2022-10-10T11:24:06.278Z,49.43
2022-10-10T11:25:23.884Z,48.97
2022-10-10T11:26:33.028Z,47.18
2022-10-10T11:27:44.894Z,46.15
2022-10-10T11:28:54.022Z,46.97
2022-10-10T11:30:08.286Z,47.20
2022-10-10T11:31:21.163Z,46.70
2022-10-10T11:32:33.987Z,47.97
2022-10-10T11:33:42.676Z,46.71
2022-10-10T11:35:16.232Z,47.31
2022-10-10T11:36:23.810Z,47.25
2022-10-10T11:37:31.138Z,47.36
2022-10-10T11:38:45.085Z,47.33
2022-10-10T11:39:55.755Z,47.72
2022-10-10T11:41:07.851Z,47.74
2022-10-10T11:42:22.702Z,47.80
2022-10-10T11:43:57.921Z,48.13
2022-10-10T11:45:14.603Z,47.75
2022-10-10T11:46:26.755Z,47.27
2022-10-10T11:47:50.968Z,47.91
2022-10-10T11:49:24.091Z,46.57
2022-10-10T11:50:31.128Z,46.62
2022-10-10T11:51:42.434Z,46.33
2022-10-10T11:53:02.780Z,46.72
2022-10-10T11:54:09.986Z,46.52
2022-10-10T11:55:22.560Z,45.84
2022-10-10T11:56:41.358Z,45.33
2022-10-10T11:57:57.881Z,43.85
2022-10-10T11:59:22.919Z,44.31
2022-10-10T12:00:29.170Z,44.52
2022-10-10T12:01:42.220Z,44.92
2022-10-10T12:02:46.807Z,44.42
2022-10-10T12:03:52.244Z,44.37
2022-10-10T12:04:55.565Z,44.64
2022-10-10T12:06:23.648Z,44.48
2022-10-10T12:07:33.076Z,44.25
2022-10-10T12:08:42.465Z,45.11
2022-10-10T12:09:50.732Z,44.26
2022-10-10T12:11:06.669Z,44.08
2022-10-10T12:12:19.901Z,44.85
2022-10-10T12:13:34.262Z,45.11
2022-10-10T12:14:41.429Z,45.19
2022-10-10T12:15:49.869Z,44.08
2022-10-10T12:16:54.108Z,44.07
2022-10-10T12:17:57.862Z,44.32
2022-10-10T12:19:24.591Z,45.16
2022-10-10T12:20:27.682Z,44.68
2022-10-10T12:21:31.974Z,44.42
2022-10-10T12:22:35.157Z,44.33
2022-10-10T12:23:38.936Z,44.50
2022-10-10T12:25:20.601Z,42.54
2022-10-10T12:26:24.448Z,42.80
2022-10-10T12:27:41.688Z,43.32
2022-10-10T12:29:02.927Z,43.25
2022-10-10T12:30:09.377Z,41.22
2022-10-10T12:31:12.363Z,42.80
2022-10-10T12:32:15.325Z,42.11
2022-10-10T12:33:45.600Z,40.95
2022-10-10T12:34:48.692Z,40.85
2022-10-10T12:35:51.759Z,41.31
2022-10-10T12:37:09.360Z,41.93
2022-10-10T12:38:20.108Z,42.54
2022-10-10T12:39:26.007Z,42.01
2022-10-10T12:40:29.177Z,42.37
2022-10-10T12:41:47.379Z,41.78
2022-10-10T12:42:51.557Z,41.94
2022-10-10T12:44:19.111Z,43.12
2022-10-10T12:45:33.975Z,41.77
2022-10-10T12:46:37.391Z,40.82
2022-10-10T12:48:04.384Z,40.80
2022-10-10T12:49:26.352Z,40.43
2022-10-10T12:50:32.551Z,40.25
2022-10-10T12:51:44.113Z,40.33
2022-10-10T12:52:55.762Z,40.32
2022-10-10T12:54:01.824Z,40.99
2022-10-10T12:55:21.728Z,41.16
2022-10-10T12:56:51.336Z,40.88
2022-10-10T12:57:57.996Z,40.70
2022-10-10T12:59:01.249Z,41.47
2022-10-10T13:00:19.021Z,41.05
2022-10-10T13:01:27.022Z,41.59
2022-10-10T13:02:30.307Z,40.56
2022-10-10T13:03:42.580Z,40.37
2022-10-10T13:04:48.833Z,39.71
2022-10-10T13:05:53.177Z,40.49
2022-10-10T13:07:00.079Z,40.78
2022-10-10T13:08:06.833Z,39.16
2022-10-10T13:09:29.931Z,39.02
2022-10-10T13:10:36.987Z,38.95
2022-10-10T13:11:58.533Z,39.02
2022-10-10T13:13:13.813Z,39.67
2022-10-10T13:14:16.908Z,38.22
2022-10-10T13:15:21.153Z,37.23
2022-10-10T13:16:31.302Z,37.81
2022-10-10T13:17:41.256Z,38.02
2022-10-10T13:18:51.262Z,37.75
2022-10-10T13:19:55.915Z,38.97
2022-10-10T13:21:00.269Z,38.33
2022-10-10T13:22:04.143Z,38.06
2022-10-10T13:23:15.888Z,37.22
2022-10-10T13:24:26.259Z,37.06
2022-10-10T13:25:29.493Z,37.33
2022-10-10T13:26:34.433Z,37.47
2022-10-10T13:27:37.482Z,36.83
2022-10-10T13:28:44.608Z,35.85
2022-10-10T13:29:48.262Z,36.04
2022-10-10T13:30:51.915Z,35.96
2022-10-10T13:32:00.394Z,35.68
2022-10-10T13:33:03.722Z,35.36
2022-10-10T13:34:07.562Z,36.07
2022-10-10T13:35:17.459Z,35.89
2022-10-10T13:36:22.251Z,35.44
2022-10-10T13:37:26.541Z,35.59
2022-10-10T13:38:29.563Z,35.47
2022-10-10T13:39:36.611Z,35.05
2022-10-10T13:40:42.611Z,35.01
2022-10-10T13:41:47.641Z,35.67
2022-10-10T13:42:52.344Z,34.75
2022-10-10T13:43:55.633Z,35.37
2022-10-10T13:45:03.158Z,35.63
2022-10-10T13:46:06.822Z,35.28
2022-10-10T13:47:47.657Z,34.69
2022-10-10T13:48:51.112Z,35.22
2022-10-10T13:49:56.840Z,34.63
2022-10-10T13:51:04.753Z,34.28
2022-10-10T13:52:24.215Z,34.87
2022-10-10T13:53:27.487Z,35.11
2022-10-10T13:54:38.380Z,35.45
2022-10-10T13:55:41.939Z,35.21
2022-10-10T13:56:44.972Z,35.98
2022-10-10T13:57:50.760Z,36.67
2022-10-10T13:59:06.037Z,36.96
2022-10-10T14:00:18.770Z,36.85
2022-10-10T14:01:39.315Z,37.12
2022-10-10T14:02:45.787Z,37.64
2022-10-10T14:03:51.800Z,37.66
2022-10-10T14:04:55.385Z,38.24
2022-10-10T14:06:00.067Z,38.72
2022-10-10T14:07:17.237Z,39.19
2022-10-10T14:08:30.730Z,39.66
2022-10-10T14:09:44.086Z,39.90
2022-10-10T14:11:03.427Z,40.15
2022-10-10T14:12:15.158Z,40.43
2022-10-10T14:13:18.465Z,40.76
2022-10-10T14:14:25.010Z,41.18
2022-10-10T14:15:43.293Z,41.19
2022-10-10T14:16:57.675Z,41.51
2022-10-10T14:18:00.865Z,42.00
2022-10-10T14:19:14.705Z,42.41
2022-10-10T14:20:17.805Z,43.15
2022-10-10T14:21:21.400Z,43.53
2022-10-10T14:22:24.613Z,43.73
2022-10-10T14:23:27.630Z,44.14
2022-10-10T14:24:31.253Z,44.96
2022-10-10T14:25:34.407Z,45.34
2022-10-10T14:26:37.509Z,45.46
2022-10-10T14:27:40.744Z,46.33
2022-10-10T14:28:44.181Z,46.47
2022-10-10T14:29:47.438Z,46.81
2022-10-10T14:30:50.675Z,47.56
2022-10-10T14:31:53.736Z,48.22
2022-10-10T14:32:56.870Z,48.54
2022-10-10T14:33:59.875Z,48.55
2022-10-10T14:35:02.921Z,49.35
2022-10-10T14:36:06.329Z,49.13
2022-10-10T14:37:27.093Z,49.79
2022-10-10T14:38:30.579Z,49.97
2022-10-10T14:39:33.639Z,51.55
2022-10-10T14:40:37.235Z,51.93
2022-10-10T14:41:40.336Z,51.94